Time;durP1;ratioP1;P1;durP2;ratioP2;P2;SDS_P1;SDS_P2;PMS_P1;PMS_P2;Temp;Humidity;BMP_temperature;BMP_pressure;BME280_temperature;BME280_humidity;BME280_pressure;Samples;Min_cycle;Max_cycle;Signal;HPM_P1;HPM_P2
2022/05/06 00:02:09;;;;;;;2.87;2.60;;;12.00;99.90;;;;;;5070624;28;20669;-47
2022/05/06 00:04:36;;;;;;;3.03;2.73;;;12.10;99.90;;;;;;5071105;28;20440;-46
2022/05/06 00:07:04;;;;;;;2.30;2.10;;;12.10;99.90;;;;;;5071025;28;20975;-47
2022/05/06 00:09:31;;;;;;;2.93;2.30;;;12.00;99.90;;;;;;5072476;28;20476;-47
2022/05/06 00:11:58;;;;;;;3.30;3.00;;;12.00;99.90;;;;;;5070631;28;20477;-47
2022/05/06 00:14:26;;;;;;;2.50;2.30;;;12.20;99.90;;;;;;5070682;28;20456;-49
2022/05/06 00:16:53;;;;;;;3.00;2.67;;;12.30;99.90;;;;;;5070846;28;20445;-49
2022/05/06 00:19:20;;;;;;;2.63;2.33;;;12.40;99.90;;;;;;5070685;28;20470;-47
2022/05/06 00:21:47;;;;;;;2.73;2.53;;;12.60;99.90;;;;;;5070663;28;20484;-47
2022/05/06 00:24:14;;;;;;;3.03;2.50;;;12.40;99.90;;;;;;5070647;28;20470;-47
2022/05/06 00:26:42;;;;;;;4.10;2.87;;;12.20;99.90;;;;;;5070833;28;20440;-47
2022/05/06 00:29:09;;;;;;;3.30;3.00;;;12.20;99.90;;;;;;5070564;28;20870;-47
2022/05/06 00:31:37;;;;;;;2.93;2.63;;;12.20;99.90;;;;;;5071142;28;20499;-49
2022/05/06 00:34:04;;;;;;;3.77;2.93;;;12.10;99.90;;;;;;5070300;28;20472;-48
2022/05/06 00:36:31;;;;;;;3.20;2.57;;;12.30;99.90;;;;;;5072343;28;20531;-47
2022/05/06 00:38:58;;;;;;;3.50;2.60;;;12.20;99.90;;;;;;5074056;28;20517;-49
2022/05/06 00:41:25;;;;;;;2.60;2.40;;;12.10;99.90;;;;;;5074303;28;20486;-47
2022/05/06 00:43:52;;;;;;;4.27;3.87;;;12.20;99.90;;;;;;5073765;28;21006;-47
2022/05/06 00:46:20;;;;;;;4.60;3.43;;;12.00;99.90;;;;;;5074009;28;20468;-47
2022/05/06 00:48:49;;;;;;;4.17;3.50;;;11.80;99.90;;;;;;5073925;28;20460;-46
2022/05/06 00:51:18;;;;;;;3.30;3.00;;;11.90;99.90;;;;;;5074077;28;20444;-46
2022/05/06 00:53:45;;;;;;;4.20;3.80;;;11.90;99.90;;;;;;5073695;28;20951;-45
2022/05/06 00:56:13;;;;;;;3.77;3.43;;;12.00;99.90;;;;;;5074056;28;20498;-45
2022/05/06 00:58:40;;;;;;;4.10;3.40;;;11.90;99.90;;;;;;5073882;28;20460;-45
2022/05/06 01:01:07;;;;;;;4.80;3.50;;;11.90;99.90;;;;;;5073677;28;20680;-45
2022/05/06 01:03:34;;;;;;;4.43;3.40;;;11.90;99.90;;;;;;5073774;28;20432;-45
2022/05/06 01:06:07;;;;;;;4.77;3.83;;;12.00;99.90;;;;;;5073592;28;20980;-44
2022/05/06 01:08:35;;;;;;;3.20;2.90;;;11.90;99.90;;;;;;5073462;28;20996;-45
2022/05/06 01:11:02;;;;;;;3.43;3.13;;;11.90;99.90;;;;;;5073625;28;20440;-48
2022/05/06 01:13:29;;;;;;;4.30;3.33;;;12.10;99.90;;;;;;5073315;28;21067;-45
2022/05/06 01:15:56;;;;;;;4.20;3.50;;;12.30;99.90;;;;;;5073539;28;20440;-46
2022/05/06 01:18:24;;;;;;;5.80;3.50;;;12.60;99.90;;;;;;5073726;28;20460;-45
2022/05/06 01:20:52;;;;;;;3.90;3.60;;;12.70;99.90;;;;;;5073349;28;20472;-46
2022/05/06 01:23:23;;;;;;;5.10;3.67;;;12.70;99.90;;;;;;5072906;28;20440;-48
2022/05/06 01:25:50;;;;;;;6.00;3.07;;;12.90;99.90;;;;;;5073267;28;20440;-45
2022/05/06 01:28:17;;;;;;;3.50;3.20;;;12.70;99.90;;;;;;5072891;28;20892;-45
2022/05/06 01:30:47;;;;;;;3.93;3.53;;;12.60;99.90;;;;;;5073650;28;20441;-44
2022/05/06 01:33:15;;;;;;;4.10;3.70;;;12.30;99.90;;;;;;5072786;28;20480;-45
2022/05/06 01:35:44;;;;;;;2.93;2.63;;;12.30;99.90;;;;;;5073291;28;20451;-45
2022/05/06 01:38:16;;;;;;;3.03;2.60;;;12.20;99.90;;;;;;5073213;28;20492;-44
2022/05/06 01:40:48;;;;;;;3.47;3.17;;;12.40;99.90;;;;;;5073073;28;20493;-45
2022/05/06 01:43:17;;;;;;;3.13;2.83;;;12.60;99.90;;;;;;5072800;28;20432;-44
2022/05/06 01:45:46;;;;;;;3.03;2.50;;;12.50;99.90;;;;;;5072867;28;20475;-45
2022/05/06 01:48:16;;;;;;;3.57;3.27;;;12.60;99.90;;;;;;5071694;28;20495;-45
2022/05/06 01:50:44;;;;;;;4.17;3.73;;;12.60;99.90;;;;;;5072748;28;20519;-46
2022/05/06 01:53:14;;;;;;;3.27;3.00;;;12.60;99.90;;;;;;5072648;28;20559;-44
2022/05/06 01:55:41;;;;;;;3.20;2.67;;;12.40;99.90;;;;;;5072761;28;20543;-47
2022/05/06 01:58:10;;;;;;;7.13;2.70;;;12.30;99.90;;;;;;5072530;28;20985;-44
2022/05/06 02:00:36;;;;;;;5.13;2.83;;;12.30;99.90;;;;;;5072937;28;20823;-45
2022/05/06 02:03:04;;;;;;;3.20;2.90;;;12.40;99.90;;;;;;5072081;28;20480;-47
2022/05/06 02:05:30;;;;;;;2.80;2.60;;;12.40;99.90;;;;;;5072828;28;20491;-45
2022/05/06 02:07:57;;;;;;;3.57;3.10;;;12.50;99.90;;;;;;5072305;28;20984;-45
2022/05/06 02:10:26;;;;;;;3.43;3.13;;;12.40;99.90;;;;;;5072696;28;20480;-45
2022/05/06 02:12:53;;;;;;;3.13;2.83;;;12.40;99.90;;;;;;5072464;28;20468;-45
2022/05/06 02:15:21;;;;;;;3.30;3.00;;;12.30;99.90;;;;;;5072333;28;20487;-45
2022/05/06 02:17:48;;;;;;;2.83;2.57;;;12.20;99.90;;;;;;5072098;28;21004;-44
2022/05/06 02:20:15;;;;;;;2.63;2.43;;;12.20;99.90;;;;;;5072631;28;20490;-47
2022/05/06 02:22:43;;;;;;;3.13;2.67;;;12.10;99.90;;;;;;5071909;28;20437;-45
2022/05/06 02:25:11;;;;;;;4.97;3.00;;;12.10;99.90;;;;;;5072246;28;20444;-44
2022/05/06 02:27:38;;;;;;;3.17;2.80;;;12.20;99.90;;;;;;5072142;28;20495;-45
2022/05/06 02:35:37;;;;;;;3.40;3.10;;;12.20;99.90;;;;;;5072210;28;20420;-44
2022/05/06 02:38:05;;;;;;;3.20;2.80;;;12.20;99.90;;;;;;5071564;28;20525;-46
2022/05/06 02:40:34;;;;;;;3.97;3.17;;;12.20;99.90;;;;;;5072202;28;20478;-46
2022/05/06 02:43:01;;;;;;;3.80;2.97;;;12.20;99.90;;;;;;5071660;28;20441;-45
2022/05/06 02:45:28;;;;;;;3.73;2.77;;;12.00;99.90;;;;;;5071751;28;20472;-47
2022/05/06 02:47:57;;;;;;;3.43;2.67;;;11.70;99.90;;;;;;5071386;28;20995;-45
2022/05/06 02:50:24;;;;;;;2.87;2.60;;;11.30;99.90;;;;;;5071700;28;20489;-45
2022/05/06 02:52:51;;;;;;;3.70;2.97;;;11.10;99.90;;;;;;5071597;28;20508;-46
2022/05/06 02:55:18;;;;;;;2.60;2.33;;;11.20;99.90;;;;;;5071635;28;20933;-44
2022/05/06 02:57:45;;;;;;;3.40;2.70;;;11.20;99.90;;;;;;5071885;28;20522;-45
2022/05/06 03:00:13;;;;;;;3.23;2.87;;;11.40;99.90;;;;;;5071362;28;20527;-45
2022/05/06 03:02:40;;;;;;;4.83;2.60;;;11.80;99.90;;;;;;5071124;28;20971;-45
2022/05/06 03:05:10;;;;;;;2.97;2.20;;;12.00;99.90;;;;;;5071612;28;20444;-44
2022/05/06 03:07:37;;;;;;;3.03;2.73;;;11.90;99.90;;;;;;5071401;28;20467;-45
2022/05/06 03:10:05;;;;;;;4.50;4.20;;;11.80;99.90;;;;;;5071572;28;20462;-47
2022/05/06 03:12:33;;;;;;;4.13;3.33;;;11.80;99.90;;;;;;5071449;28;20525;-52
2022/05/06 03:15:03;;;;;;;4.43;2.83;;;11.80;99.90;;;;;;5071588;28;20955;-45
2022/05/06 03:17:30;;;;;;;3.00;2.73;;;11.70;99.90;;;;;;5071459;28;20464;-44
2022/05/06 03:19:57;;;;;;;4.70;3.30;;;11.60;99.90;;;;;;5071351;28;20468;-45
2022/05/06 03:22:26;;;;;;;4.73;3.50;;;11.50;99.90;;;;;;5071205;28;20491;-45
2022/05/06 03:24:53;;;;;;;3.13;2.83;;;11.50;99.90;;;;;;5071491;28;20490;-45
2022/05/06 03:30:08;;;;;;;3.93;3.60;;;12.00;99.90;;;;;;5071594;28;20412;-47
2022/05/06 03:32:35;;;;;;;4.20;3.80;;;12.20;99.90;;;;;;5071207;28;20476;-44
2022/05/06 03:35:03;;;;;;;4.03;3.60;;;12.20;99.90;;;;;;5071156;28;20539;-45
2022/05/06 03:37:33;;;;;;;3.70;3.40;;;12.10;99.90;;;;;;5071295;28;20463;-46
2022/05/06 03:40:00;;;;;;;3.00;2.77;;;12.10;99.90;;;;;;5071304;28;20470;-46
2022/05/06 03:42:27;;;;;;;4.17;3.70;;;12.10;99.90;;;;;;5070885;28;20472;-44
2022/05/06 03:44:54;;;;;;;3.60;3.30;;;12.10;99.90;;;;;;5070887;28;20493;-48
2022/05/06 03:47:22;;;;;;;3.60;3.30;;;11.90;99.90;;;;;;5071114;28;20436;-45
2022/05/06 03:51:20;;;;;;;3.77;3.40;;;11.80;99.90;;;;;;5071357;28;20472;-44
2022/05/06 03:52:38;;;;;;;4.67;4.27;;;11.90;99.90;;;;;;5070872;28;20491;-46
2022/05/06 03:55:06;;;;;;;4.07;3.67;;;11.80;99.90;;;;;;5071125;28;20530;-45
2022/05/06 03:57:33;;;;;;;3.87;3.47;;;11.60;99.90;;;;;;5071089;28;20530;-45
2022/05/06 04:00:00;;;;;;;4.00;3.70;;;11.60;99.90;;;;;;5070864;28;20967;-43
2022/05/06 04:02:27;;;;;;;4.07;3.70;;;11.70;99.90;;;;;;5070802;28;20437;-47
2022/05/06 04:04:54;;;;;;;4.60;3.80;;;12.00;99.90;;;;;;5070982;28;20505;-45
2022/05/06 04:07:21;;;;;;;4.60;3.90;;;12.20;99.90;;;;;;5070622;28;20445;-44
2022/05/06 04:09:49;;;;;;;3.80;3.50;;;12.20;99.90;;;;;;5070981;28;20805;-47
2022/05/06 04:12:16;;;;;;;3.63;3.33;;;12.30;99.90;;;;;;5073575;28;20468;-45
2022/05/06 04:14:43;;;;;;;4.10;3.70;;;12.30;99.90;;;;;;5074742;28;20441;-44
2022/05/06 04:17:10;;;;;;;4.17;3.83;;;12.30;99.90;;;;;;5074672;28;20482;-47
2022/05/06 04:19:37;;;;;;;4.10;3.67;;;12.30;99.90;;;;;;5074745;28;20440;-44
2022/05/06 04:24:50;;;;;;;4.00;3.37;;;12.20;99.90;;;;;;5033407;28;20416;-45
2022/05/06 04:27:17;;;;;;;5.70;4.40;;;12.20;99.90;;;;;;5074614;28;20449;-45
2022/05/06 04:29:44;;;;;;;8.00;7.20;;;12.10;99.90;;;;;;5074061;28;20963;-44
2022/05/06 04:32:11;;;;;;;8.30;6.40;;;12.00;99.90;;;;;;5074160;28;20490;-45
2022/05/06 04:34:38;;;;;;;9.70;8.70;;;12.00;99.90;;;;;;5074356;28;20508;-44
2022/05/06 04:37:06;;;;;;;10.07;6.77;;;12.10;99.90;;;;;;5074572;28;20476;-46
2022/05/06 04:39:33;;;;;;;5.87;5.27;;;12.10;99.90;;;;;;5074116;28;20472;-44
2022/05/06 04:42:02;;;;;;;5.53;5.03;;;12.20;99.90;;;;;;5073966;28;20972;-45
2022/05/06 04:44:29;;;;;;;5.70;5.00;;;12.30;99.90;;;;;;5074019;28;20448;-45
2022/05/06 04:46:56;;;;;;;6.30;5.40;;;12.40;99.90;;;;;;5074103;28;20998;-45
2022/05/06 04:49:23;;;;;;;6.40;5.70;;;12.60;99.90;;;;;;5073851;28;20492;-45
2022/05/06 04:51:50;;;;;;;5.70;5.20;;;12.60;99.90;;;;;;5073849;28;20484;-44
2022/05/06 04:54:17;;;;;;;5.03;4.30;;;12.40;99.90;;;;;;5073979;28;20994;-45
2022/05/06 04:56:44;;;;;;;6.53;5.93;;;12.10;99.90;;;;;;5073820;28;20505;-48
2022/05/06 04:59:13;;;;;;;7.17;6.50;;;12.00;99.90;;;;;;5074074;28;20492;-45
2022/05/06 05:01:40;;;;;;;7.53;6.00;;;12.00;99.90;;;;;;5073637;28;20491;-45
2022/05/06 05:04:07;;;;;;;7.77;6.97;;;12.00;99.90;;;;;;5073613;28;20451;-48
2022/05/06 05:06:34;;;;;;;7.60;6.77;;;12.20;99.90;;;;;;5073696;28;20577;-45
2022/05/06 05:09:01;;;;;;;6.73;6.03;;;12.40;99.90;;;;;;5073572;28;20542;-45
2022/05/06 05:11:29;;;;;;;10.23;7.00;;;12.60;99.90;;;;;;5073501;28;20478;-46
2022/05/06 05:13:56;;;;;;;6.83;6.13;;;12.60;99.90;;;;;;5073198;28;20476;-50
2022/05/06 05:16:24;;;;;;;16.93;8.43;;;12.60;99.90;;;;;;5073906;28;20479;-45
2022/05/06 05:18:51;;;;;;;8.13;7.33;;;12.60;99.90;;;;;;5073232;28;20499;-45
2022/05/06 05:21:18;;;;;;;12.30;10.83;;;12.70;99.90;;;;;;5073446;28;20464;-44
2022/05/06 05:23:46;;;;;;;8.07;7.27;;;12.80;99.90;;;;;;5073473;28;20440;-45
2022/05/06 05:26:13;;;;;;;7.93;7.10;;;12.80;99.90;;;;;;5073338;28;20818;-46
2022/05/06 05:28:40;;;;;;;6.97;6.37;;;12.90;99.90;;;;;;5073081;28;20510;-45
2022/05/06 05:31:07;;;;;;;8.03;7.27;;;12.90;99.90;;;;;;5073387;28;20441;-50
2022/05/06 05:33:35;;;;;;;8.10;7.30;;;12.80;99.90;;;;;;5072907;28;20905;-45
2022/05/06 05:36:02;;;;;;;7.43;6.73;;;12.80;99.90;;;;;;5072961;28;20452;-45
2022/05/06 05:38:29;;;;;;;8.90;8.00;;;12.80;99.90;;;;;;5073301;28;20464;-45
2022/05/06 05:40:56;;;;;;;7.90;6.90;;;12.80;99.90;;;;;;5073134;28;20483;-44
2022/05/06 05:48:53;;;;;;;7.83;6.97;;;12.40;99.90;;;;;;5072973;28;20948;-45
2022/05/06 05:51:20;;;;;;;7.40;6.67;;;12.40;99.90;;;;;;5072803;28;20441;-45
2022/05/06 05:53:47;;;;;;;6.63;5.90;;;12.60;99.90;;;;;;5072717;28;20508;-45
2022/05/06 05:56:14;;;;;;;7.90;6.67;;;12.80;99.90;;;;;;5073121;28;20444;-45
2022/05/06 05:58:41;;;;;;;8.77;6.83;;;13.00;99.90;;;;;;5072625;28;20492;-46
2022/05/06 06:01:08;;;;;;;8.77;6.27;;;13.10;99.90;;;;;;5072628;28;20476;-45
2022/05/06 06:03:35;;;;;;;13.40;6.57;;;13.10;99.90;;;;;;5072526;28;20479;-45
2022/05/06 06:06:03;;;;;;;19.37;8.13;;;13.20;99.90;;;;;;5072605;28;20505;-43
2022/05/06 06:08:30;;;;;;;106.57;17.73;;;13.30;99.90;;;;;;5073743;28;20468;-45
2022/05/06 06:11:01;;;;;;;9.50;6.27;;;13.30;99.90;;;;;;5072577;28;20491;-45
2022/05/06 06:13:30;;;;;;;7.63;6.10;;;13.40;99.90;;;;;;5072372;28;20530;-46
2022/05/06 06:15:57;;;;;;;6.83;6.20;;;13.40;99.90;;;;;;5072414;28;20441;-45
2022/05/06 06:18:26;;;;;;;4.97;4.57;;;13.00;99.90;;;;;;5072317;28;20488;-50
2022/05/06 06:20:54;;;;;;;6.63;5.20;;;13.00;99.90;;;;;;5072223;28;20531;-45
2022/05/06 06:23:22;;;;;;;5.87;5.30;;;13.00;99.90;;;;;;5072031;28;20437;-45
2022/05/06 06:25:49;;;;;;;16.77;7.30;;;12.90;99.90;;;;;;5072051;28;20483;-44
2022/05/06 06:28:16;;;;;;;6.67;6.17;;;12.90;99.90;;;;;;5071485;28;20495;-45
2022/05/06 06:30:43;;;;;;;7.53;6.50;;;12.90;99.90;;;;;;5071995;28;20493;-45
2022/05/06 06:33:10;;;;;;;7.90;6.43;;;13.10;99.90;;;;;;5071712;28;20792;-46
2022/05/06 06:35:37;;;;;;;6.30;5.70;;;13.20;99.90;;;;;;5071785;28;20440;-45
2022/05/06 06:38:04;;;;;;;6.67;6.07;;;13.20;99.90;;;;;;5072063;28;20488;-45
2022/05/06 06:40:33;;;;;;;6.67;5.87;;;13.10;99.90;;;;;;5071911;28;20437;-49
2022/05/06 06:43:01;;;;;;;10.07;7.37;;;13.10;99.90;;;;;;5071805;28;20436;-47
2022/05/06 06:45:28;;;;;;;6.57;5.80;;;13.00;99.90;;;;;;5072160;28;20530;-45
2022/05/06 06:47:55;;;;;;;24.97;7.73;;;12.80;99.90;;;;;;5071850;28;20515;-45
2022/05/06 06:50:24;;;;;;;13.50;8.30;;;12.80;99.90;;;;;;5071850;28;20940;-46
2022/05/06 06:52:51;;;;;;;17.53;15.63;;;12.60;99.90;;;;;;5071579;28;20956;-45
2022/05/06 06:55:18;;;;;;;8.80;6.63;;;12.60;99.90;;;;;;5071453;28;20472;-45
2022/05/06 06:57:46;;;;;;;6.67;6.00;;;12.70;99.90;;;;;;5071838;28;21005;-45
2022/05/06 07:00:14;;;;;;;6.00;5.07;;;12.70;99.90;;;;;;5071407;28;20952;-45
2022/05/06 07:02:42;;;;;;;7.47;6.77;;;12.70;99.90;;;;;;5071502;28;20440;-45
2022/05/06 07:05:10;;;;;;;5.97;5.37;;;12.70;99.90;;;;;;5071624;28;20451;-45
2022/05/06 07:13:22;;;;;;;7.53;4.87;;;13.20;99.90;;;;;;5009037;28;20987;-44
2022/05/06 07:15:49;;;;;;;218.63;31.93;;;13.30;99.90;;;;;;5009315;28;20506;-45
2022/05/06 07:18:16;;;;;;;10.10;8.80;;;13.30;99.90;;;;;;5036620;28;20460;-48
2022/05/06 07:20:43;;;;;;;6.50;5.90;;;13.30;99.90;;;;;;5071550;28;20450;-45
2022/05/06 07:23:10;;;;;;;6.23;5.63;;;13.20;99.90;;;;;;5071248;28;20472;-48
2022/05/06 07:25:37;;;;;;;7.00;5.47;;;13.30;99.90;;;;;;5071212;28;20443;-45
2022/05/06 07:28:04;;;;;;;5.23;4.70;;;13.50;99.90;;;;;;5071300;28;20493;-41
2022/05/06 07:30:33;;;;;;;5.63;4.30;;;13.60;99.90;;;;;;5071249;28;20462;-46
2022/05/06 07:33:00;;;;;;;5.97;5.47;;;13.60;99.90;;;;;;5070924;28;20976;-45
2022/05/06 07:35:27;;;;;;;5.87;5.27;;;13.60;99.90;;;;;;5071075;28;20480;-47
2022/05/06 07:37:54;;;;;;;16.47;5.07;;;13.50;99.90;;;;;;5071148;28;20464;-45
2022/05/06 07:40:21;;;;;;;8.23;5.57;;;13.40;99.90;;;;;;5070969;28;20436;-45
2022/05/06 07:42:50;;;;;;;4.50;4.10;;;13.50;99.90;;;;;;5071326;28;20444;-46
2022/05/06 07:45:17;;;;;;;12.10;6.00;;;13.70;99.90;;;;;;5071335;28;20498;-45
2022/05/06 07:47:46;;;;;;;27.57;7.87;;;13.70;99.90;;;;;;5074989;28;20487;-45
2022/05/06 07:50:12;;;;;;;8.07;5.23;;;13.60;99.90;;;;;;5075371;28;20506;-45
2022/05/06 07:52:40;;;;;;;5.33;4.20;;;13.50;99.90;;;;;;5074762;28;20872;-45
2022/05/06 07:55:10;;;;;;;5.50;5.10;;;13.40;99.90;;;;;;5075113;28;20483;-45
2022/05/06 07:57:37;;;;;;;16.07;5.17;;;13.60;99.90;;;;;;5075134;28;20490;-45
2022/05/06 08:00:05;;;;;;;7.90;6.30;;;13.50;99.90;;;;;;5075142;28;20466;-45
2022/05/06 08:05:18;;;;;;;5.80;4.40;;;13.40;99.90;;;;;;5074815;28;20416;-45
2022/05/06 08:07:45;;;;;;;5.53;4.70;;;13.50;99.90;;;;;;5074916;28;20537;-48
2022/05/06 08:10:12;;;;;;;4.53;4.13;;;13.40;99.90;;;;;;5074721;28;20971;-46
2022/05/06 08:12:39;;;;;;;5.23;4.73;;;13.40;99.90;;;;;;5074485;28;20640;-44
2022/05/06 08:15:06;;;;;;;4.07;3.77;;;13.40;99.90;;;;;;5074528;28;20480;-45
2022/05/06 08:17:33;;;;;;;4.73;4.33;;;13.30;99.90;;;;;;5074426;28;20456;-48
2022/05/06 08:20:00;;;;;;;7.30;4.80;;;13.30;99.90;;;;;;5074794;28;20493;-45
2022/05/06 08:22:29;;;;;;;4.27;3.87;;;13.30;99.90;;;;;;5074966;28;20489;-46
2022/05/06 08:24:56;;;;;;;42.13;8.70;;;13.40;99.90;;;;;;5074882;28;20476;-44
2022/05/06 08:27:23;;;;;;;19.53;7.47;;;13.50;99.90;;;;;;5075274;28;20449;-45
2022/05/06 08:29:50;;;;;;;9.43;4.60;;;13.60;99.90;;;;;;5074062;28;20470;-46
2022/05/06 08:32:17;;;;;;;454.87;53.97;;;13.70;99.90;;;;;;5074133;28;20925;-50
2022/05/06 08:34:47;;;;;;;48.97;9.63;;;13.40;99.90;;;;;;5074579;28;20483;-45
2022/05/06 08:37:14;;;;;;;8.20;4.60;;;13.40;99.90;;;;;;5074067;28;20941;-46
2022/05/06 08:39:42;;;;;;;6.80;6.00;;;13.30;99.90;;;;;;5074365;28;20444;-46
2022/05/06 08:42:13;;;;;;;10.60;6.63;;;13.50;99.90;;;;;;5074101;28;20468;-47
2022/05/06 08:52:57;;;;;;;8.80;6.70;;;13.50;99.90;;;;;;5073888;28;20784;-45
2022/05/06 08:55:25;;;;;;;7.83;6.43;;;13.40;99.90;;;;;;5074202;28;20571;-47
2022/05/06 08:57:52;;;;;;;9.17;7.87;;;13.50;99.90;;;;;;5073455;28;20884;-46
2022/05/06 09:00:23;;;;;;;7.27;6.57;;;13.40;99.90;;;;;;5074084;28;20444;-45
2022/05/06 09:02:51;;;;;;;7.90;7.10;;;13.30;99.90;;;;;;5073643;28;20438;-51
2022/05/06 09:05:18;;;;;;;7.03;6.33;;;13.30;99.90;;;;;;5073695;28;20468;-45
2022/05/06 09:07:55;;;;;;;10.80;7.80;;;13.30;99.90;;;;;;5073476;28;21058;-46
2022/05/06 09:10:22;;;;;;;8.20;7.10;;;13.40;99.90;;;;;;5073844;28;20483;-45
2022/05/06 09:12:55;;;;;;;7.33;6.73;;;13.50;99.90;;;;;;5073523;28;20466;-47
2022/05/06 09:18:08;;;;;;;12.93;8.23;;;13.40;99.90;;;;;;5073634;28;20439;-47
2022/05/06 09:20:35;;;;;;;8.37;6.70;;;13.40;99.90;;;;;;5073539;28;20511;-45
2022/05/06 09:23:22;;;;;;;82.83;14.67;;;13.50;99.90;;;;;;5073089;28;20441;-45
2022/05/06 09:25:51;;;;;;;7.57;6.77;;;13.50;99.90;;;;;;5073506;28;20798;-45
2022/05/06 09:28:25;;;;;;;7.63;6.73;;;13.50;99.90;;;;;;5073032;28;20475;-46
2022/05/06 09:31:03;;;;;;;13.57;6.63;;;13.60;99.90;;;;;;5073622;28;20509;-46
2022/05/06 09:33:30;;;;;;;6.87;6.27;;;13.60;99.90;;;;;;5073250;28;20479;-45
2022/05/06 09:35:57;;;;;;;69.43;14.23;;;13.60;99.90;;;;;;5073223;28;20534;-46
2022/05/06 09:38:26;;;;;;;355.27;49.70;;;13.70;99.90;;;;;;5073186;28;20465;-46
2022/05/06 09:40:53;;;;;;;216.27;26.40;;;13.90;99.90;;;;;;5073221;28;21002;-47
2022/05/06 09:43:22;;;;;;;12.00;6.80;;;14.10;99.90;;;;;;5073214;28;20472;-46
2022/05/06 09:45:49;;;;;;;7.80;6.70;;;14.10;99.90;;;;;;5072952;28;20949;-45
2022/05/06 09:48:16;;;;;;;8.63;7.83;;;13.90;99.90;;;;;;5072927;28;20468;-46
2022/05/06 09:50:45;;;;;;;156.83;26.03;;;14.00;99.90;;;;;;5072873;28;20475;-47
2022/05/06 09:53:14;;;;;;;11.53;10.40;;;13.80;99.90;;;;;;5072686;28;20877;-45
2022/05/06 09:55:44;;;;;;;8.80;6.83;;;13.70;99.90;;;;;;5072610;28;20480;-46
2022/05/06 09:58:12;;;;;;;8.00;7.20;;;13.70;99.90;;;;;;5072954;28;20468;-45
2022/05/06 10:00:41;;;;;;;11.03;7.60;;;13.70;99.90;;;;;;5072722;28;20479;-46
2022/05/06 10:03:09;;;;;;;7.23;6.53;;;13.70;99.90;;;;;;5072422;28;20445;-46
2022/05/06 10:05:37;;;;;;;15.40;8.93;;;13.80;99.90;;;;;;5072554;28;20440;-45
2022/05/06 10:08:07;;;;;;;9.93;8.10;;;13.80;99.90;;;;;;5072314;28;20570;-45
2022/05/06 10:10:39;;;;;;;8.43;7.70;;;13.90;99.90;;;;;;5072366;28;20476;-45
2022/05/06 10:13:12;;;;;;;11.80;9.30;;;13.90;99.90;;;;;;5072527;28;20475;-46
2022/05/06 10:15:41;;;;;;;9.30;8.40;;;13.90;99.90;;;;;;5072157;28;20833;-46
2022/05/06 10:18:08;;;;;;;8.70;8.00;;;13.90;99.90;;;;;;5072232;28;20495;-45
2022/05/06 10:21:03;;;;;;;8.27;7.57;;;13.80;99.90;;;;;;5072678;28;20444;-47
2022/05/06 10:23:50;;;;;;;10.47;7.83;;;13.90;99.90;;;;;;5071790;28;20929;-49
2022/05/06 10:26:42;;;;;;;8.93;7.73;;;13.80;99.90;;;;;;5072209;28;20478;-45
2022/05/06 10:35:11;;;;;;;13.13;11.37;;;14.00;99.90;;;;;;5072226;28;20521;-46
2022/05/06 10:37:39;;;;;;;11.43;8.30;;;14.00;99.90;;;;;;5072111;28;20464;-45
2022/05/06 10:40:32;;;;;;;9.23;8.27;;;14.00;99.90;;;;;;5071889;28;20805;-50
2022/05/06 10:43:00;;;;;;;10.70;9.40;;;13.80;99.90;;;;;;5072078;28;20440;-45
2022/05/06 10:45:29;;;;;;;9.50;8.60;;;13.70;99.90;;;;;;5072202;28;20428;-47
2022/05/06 10:47:58;;;;;;;9.93;9.03;;;13.70;99.90;;;;;;5071629;28;20999;-46
2022/05/06 10:50:29;;;;;;;8.73;7.90;;;13.80;99.90;;;;;;5071617;28;20875;-48
2022/05/06 10:52:57;;;;;;;11.97;10.77;;;14.10;99.90;;;;;;5071308;28;20440;-45
2022/05/06 10:55:25;;;;;;;22.63;14.63;;;14.30;99.90;;;;;;5071737;28;20566;-46
2022/05/06 10:57:58;;;;;;;17.30;11.00;;;14.30;99.90;;;;;;5071789;28;20518;-46
2022/05/06 11:00:27;;;;;;;11.10;8.53;;;14.50;99.90;;;;;;5071043;28;20475;-46
2022/05/06 11:02:55;;;;;;;26.17;19.13;;;14.40;99.90;;;;;;5071392;28;20502;-48
2022/05/06 11:05:24;;;;;;;12.70;8.60;;;14.40;99.90;;;;;;5071543;28;20531;-48
2022/05/06 11:07:56;;;;;;;9.70;8.20;;;14.40;99.90;;;;;;5071479;28;20984;-46
2022/05/06 11:10:25;;;;;;;12.10;10.00;;;14.40;99.90;;;;;;5071781;28;20807;-47
2022/05/06 11:12:54;;;;;;;11.83;9.60;;;14.40;99.90;;;;;;5070240;28;20451;-47
2022/05/06 11:15:23;;;;;;;8.97;8.07;;;14.40;99.90;;;;;;5070675;28;20902;-47
2022/05/06 11:17:51;;;;;;;9.80;8.70;;;14.40;99.90;;;;;;5071215;28;20830;-46
2022/05/06 11:20:23;;;;;;;11.57;8.17;;;14.40;99.90;;;;;;5071068;28;20990;-45
2022/05/06 11:22:59;;;;;;;12.80;9.50;;;14.50;99.90;;;;;;5071045;28;21023;-46
2022/05/06 11:25:28;;;;;;;13.33;9.00;;;14.50;99.90;;;;;;5071212;28;20475;-46
2022/05/06 11:27:56;;;;;;;13.70;8.70;;;14.40;99.90;;;;;;5071078;28;20461;-45
2022/05/06 11:30:25;;;;;;;10.57;9.33;;;14.40;99.90;;;;;;5071524;28;20440;-46
2022/05/06 11:32:54;;;;;;;1453.63;183.23;;;14.40;99.90;;;;;;5071132;28;20876;-45
2022/05/06 11:35:26;;;;;;;42.43;12.07;;;14.50;99.90;;;;;;5071667;28;20515;-45
2022/05/06 11:37:55;;;;;;;28.43;11.60;;;14.40;99.90;;;;;;5071159;28;20522;-46
2022/05/06 11:40:35;;;;;;;10.53;9.43;;;14.50;99.90;;;;;;5071858;28;20796;-45
2022/05/06 11:43:08;;;;;;;10.33;9.37;;;14.40;99.90;;;;;;5070814;28;20444;-46
2022/05/06 11:48:23;;;;;;;10.53;9.53;;;14.30;99.90;;;;;;5071134;28;20466;-46
2022/05/06 11:50:56;;;;;;;10.30;9.30;;;14.40;99.90;;;;;;5070871;28;20487;-45
2022/05/06 11:53:27;;;;;;;10.47;9.57;;;14.50;99.90;;;;;;5071180;28;20509;-45
2022/05/06 11:55:56;;;;;;;10.03;8.90;;;14.50;99.90;;;;;;5070782;28;20483;-45
2022/05/06 11:58:25;;;;;;;10.20;9.13;;;14.50;99.90;;;;;;5070202;28;21188;-46
2022/05/06 12:00:53;;;;;;;10.67;9.57;;;14.50;99.90;;;;;;5070091;28;20445;-48
2022/05/06 12:03:21;;;;;;;17.50;13.60;;;14.50;99.90;;;;;;5069585;28;20447;-46
2022/05/06 12:06:03;;;;;;;15.80;11.47;;;14.50;99.90;;;;;;5070304;28;20968;-48
2022/05/06 12:08:33;;;;;;;12.83;11.63;;;14.50;99.90;;;;;;5128529;22;20498;-46
2022/05/06 12:11:02;;;;;;;11.40;10.20;;;14.50;99.90;;;;;;5070485;28;20875;-47
2022/05/06 12:13:40;;;;;;;10.73;9.63;;;14.60;99.90;;;;;;5070384;28;20444;-46
2022/05/06 12:16:12;;;;;;;12.30;10.50;;;14.60;99.90;;;;;;5070699;28;21152;-46
2022/05/06 12:18:53;;;;;;;10.83;9.73;;;14.70;99.90;;;;;;5070682;28;20492;-46
2022/05/06 12:21:21;;;;;;;11.70;10.27;;;14.90;99.90;;;;;;5071036;28;20440;-44
2022/05/06 12:23:55;;;;;;;15.00;9.47;;;14.90;99.90;;;;;;5070548;28;20861;-43
2022/05/06 12:26:34;;;;;;;10.17;8.60;;;15.10;99.90;;;;;;5070686;28;20440;-43
2022/05/06 12:29:03;;;;;;;9.70;7.53;;;15.00;99.90;;;;;;5070470;28;20460;-43
2022/05/06 12:31:31;;;;;;;8.20;7.40;;;15.10;99.90;;;;;;5070957;28;20448;-43
2022/05/06 12:34:07;;;;;;;11.07;8.10;;;15.30;99.90;;;;;;5074147;28;20478;-43
2022/05/06 12:36:35;;;;;;;10.13;7.93;;;15.30;99.90;;;;;;5074310;28;20538;-44
2022/05/06 12:39:17;;;;;;;8.27;7.07;;;15.20;99.90;;;;;;5074592;28;20492;-48
2022/05/06 12:41:44;;;;;;;8.77;7.97;;;15.10;99.90;;;;;;5074421;28;20451;-45
2022/05/06 12:44:20;;;;;;;8.60;7.80;;;15.20;99.90;;;;;;5073877;28;20498;-43
2022/05/06 12:46:47;;;;;;;17.23;6.53;;;15.30;99.90;;;;;;5073799;28;20830;-43
2022/05/06 12:51:59;;;;;;;7.47;6.77;;;15.40;99.90;;;;;;5073887;28;20791;-44
2022/05/06 12:54:28;;;;;;;8.47;7.00;;;15.50;99.90;;;;;;5073779;28;20531;-44
2022/05/06 12:56:55;;;;;;;8.50;7.70;;;15.50;99.90;;;;;;5073876;28;20537;-43
2022/05/06 12:59:23;;;;;;;6.87;6.17;;;15.50;99.90;;;;;;5073918;28;20471;-44
2022/05/06 13:01:50;;;;;;;7.30;6.60;;;15.50;99.90;;;;;;5074069;28;20440;-44
2022/05/06 13:04:17;;;;;;;5.57;5.07;;;15.60;99.90;;;;;;5073533;28;20445;-43
2022/05/06 13:06:44;;;;;;;6.30;5.70;;;15.60;99.90;;;;;;5074071;28;20527;-44
2022/05/06 13:09:11;;;;;;;6.63;6.03;;;15.70;99.90;;;;;;5073670;28;20537;-43
2022/05/06 13:11:40;;;;;;;6.63;5.70;;;15.70;99.90;;;;;;5073606;28;20483;-44
2022/05/06 13:14:07;;;;;;;5.93;4.50;;;15.70;99.90;;;;;;5073060;28;20867;-43
2022/05/06 13:16:35;;;;;;;21.03;5.80;;;15.90;99.90;;;;;;5073838;28;20480;-48
2022/05/06 13:19:03;;;;;;;23.00;8.23;;;16.00;99.90;;;;;;5073424;28;21062;-46
2022/05/06 13:21:30;;;;;;;46.07;9.30;;;16.10;99.90;;;;;;5073717;28;20449;-43
2022/05/06 13:23:57;;;;;;;40.60;7.80;;;16.30;99.90;;;;;;5073266;28;20517;-44
2022/05/06 13:26:24;;;;;;;10.40;4.87;;;16.30;99.90;;;;;;5073579;28;20441;-44
2022/05/06 13:28:52;;;;;;;15.47;5.20;;;16.40;99.90;;;;;;5073125;28;20968;-48
2022/05/06 13:31:20;;;;;;;18.97;5.40;;;16.50;99.90;;;;;;5073445;28;20488;-46
2022/05/06 13:33:47;;;;;;;10.50;5.40;;;16.50;99.90;;;;;;5073154;28;20445;-45
2022/05/06 13:36:14;;;;;;;4.97;4.47;;;16.50;99.90;;;;;;5073412;28;20892;-44
2022/05/06 13:38:41;;;;;;;4.73;4.23;;;16.40;99.90;;;;;;5073680;28;20530;-43